createdAt,value
2018-01-21T00:00:03.110Z,11.40
2018-01-21T00:02:31.443Z,12.00
2018-01-21T00:04:59.791Z,12.57
2018-01-21T00:07:28.890Z,13.20
2018-01-21T00:09:58.012Z,11.63
2018-01-21T00:12:26.353Z,11.87
2018-01-21T00:14:54.701Z,12.87
2018-01-21T00:17:23.040Z,11.87
2018-01-21T00:19:51.366Z,12.10
2018-01-21T00:25:21.499Z,19.60
2018-01-21T00:27:49.842Z,13.57
2018-01-21T00:30:18.172Z,12.57
2018-01-21T00:32:46.515Z,12.17
2018-01-21T00:35:14.865Z,12.20
2018-01-21T00:37:43.225Z,12.17
2018-01-21T00:40:12.356Z,13.17
2018-01-21T00:42:40.736Z,12.13
2018-01-21T00:45:09.129Z,11.97
2018-01-21T00:47:37.482Z,12.70
2018-01-21T00:50:05.826Z,12.23
2018-01-21T00:52:34.159Z,12.73
2018-01-21T00:55:02.517Z,12.40
2018-01-21T00:57:30.861Z,12.87
2018-01-21T00:59:59.208Z,12.43
2018-01-21T01:02:27.557Z,13.53
2018-01-21T01:04:55.888Z,12.87
2018-01-21T01:07:24.336Z,12.23
2018-01-21T01:09:52.683Z,12.43
2018-01-21T01:12:21.086Z,12.80
2018-01-21T01:14:49.476Z,12.10
2018-01-21T01:17:17.809Z,12.73
2018-01-21T01:19:46.915Z,13.40
2018-01-21T01:22:15.315Z,12.33
2018-01-21T01:24:43.676Z,12.90
2018-01-21T01:27:12.015Z,13.70
2018-01-21T01:29:40.390Z,12.23
2018-01-21T01:32:08.726Z,11.73
2018-01-21T01:34:37.081Z,13.10
2018-01-21T01:37:06.219Z,12.83
2018-01-21T01:39:34.602Z,13.00
2018-01-21T01:42:02.973Z,12.47
2018-01-21T01:44:31.298Z,13.30
2018-01-21T01:46:59.667Z,13.80
2018-01-21T01:49:28.098Z,12.73
2018-01-21T01:51:56.442Z,14.17
2018-01-21T01:54:25.637Z,13.70
2018-01-21T01:56:54.786Z,14.33
2018-01-21T01:59:23.137Z,14.13
2018-01-21T02:01:52.235Z,14.97
2018-01-21T02:04:20.605Z,13.60
2018-01-21T02:06:48.925Z,12.83
2018-01-21T02:09:17.263Z,13.93
2018-01-21T02:11:46.394Z,12.97
2018-01-21T02:14:14.728Z,14.33
2018-01-21T02:16:43.856Z,12.53
2018-01-21T02:19:12.208Z,13.80
2018-01-21T02:21:41.335Z,14.40
2018-01-21T02:24:09.684Z,13.67
2018-01-21T02:26:38.038Z,14.83
2018-01-21T02:29:06.593Z,13.27
2018-01-21T02:31:34.910Z,14.37
2018-01-21T02:34:03.422Z,14.20
2018-01-21T02:36:31.806Z,14.10
2018-01-21T02:39:00.141Z,13.33
2018-01-21T02:41:28.529Z,14.07
2018-01-21T02:43:57.672Z,14.57
2018-01-21T02:46:26.046Z,16.03
2018-01-21T02:48:54.577Z,15.40
2018-01-21T02:51:22.947Z,14.87
2018-01-21T02:53:51.809Z,15.07
2018-01-21T02:56:20.140Z,14.27
2018-01-21T02:58:48.559Z,14.97
2018-01-21T03:01:16.888Z,15.50
2018-01-21T03:03:45.236Z,15.07
2018-01-21T03:06:13.643Z,14.80
2018-01-21T03:08:42.022Z,14.07
2018-01-21T03:11:10.369Z,14.73
2018-01-21T03:13:38.708Z,14.03
2018-01-21T03:16:07.057Z,16.03
2018-01-21T03:18:35.381Z,15.73
2018-01-21T03:21:03.729Z,15.80
2018-01-21T03:23:32.822Z,15.37
2018-01-21T03:26:01.963Z,15.47
2018-01-21T03:28:30.307Z,16.60
2018-01-21T03:30:59.394Z,16.50
2018-01-21T03:33:28.564Z,16.23
2018-01-21T03:35:56.905Z,15.57
2018-01-21T03:38:25.256Z,16.60
2018-01-21T03:40:54.357Z,16.07
2018-01-21T03:43:23.490Z,15.90
2018-01-21T03:45:51.832Z,16.53
2018-01-21T03:48:20.935Z,16.63
2018-01-21T03:50:49.283Z,16.20
2018-01-21T03:53:17.624Z,17.93
2018-01-21T03:55:45.963Z,16.70
2018-01-21T03:58:15.196Z,16.53
2018-01-21T04:00:43.565Z,16.87
2018-01-21T04:03:11.909Z,17.17
2018-01-21T04:05:40.322Z,15.60
2018-01-21T04:08:08.669Z,16.17
2018-01-21T04:10:37.098Z,17.40
2018-01-21T04:13:05.459Z,17.30
2018-01-21T04:15:33.797Z,18.13
2018-01-21T04:18:02.165Z,16.70
2018-01-21T04:20:30.496Z,16.07
2018-01-21T04:22:58.844Z,16.73
2018-01-21T04:25:27.306Z,14.97
2018-01-21T04:27:55.730Z,17.63
2018-01-21T04:30:24.130Z,16.47
2018-01-21T04:32:52.471Z,16.90
2018-01-21T04:35:21.586Z,15.80
2018-01-21T04:37:49.924Z,17.20
2018-01-21T04:40:18.284Z,18.57
2018-01-21T04:42:46.733Z,16.60
2018-01-21T04:45:15.059Z,16.37
2018-01-21T04:47:43.493Z,16.50
2018-01-21T04:50:11.889Z,16.50
2018-01-21T04:52:40.365Z,16.43
2018-01-21T04:55:08.763Z,16.73
2018-01-21T04:57:37.123Z,18.17
2018-01-21T05:00:05.468Z,18.63
2018-01-21T05:02:34.598Z,17.97
2018-01-21T05:05:02.939Z,17.80
2018-01-21T05:07:32.036Z,18.57
2018-01-21T05:10:01.260Z,18.27
2018-01-21T05:12:29.655Z,17.87
2018-01-21T05:14:57.993Z,18.10
2018-01-21T05:17:26.342Z,17.43
2018-01-21T05:19:54.692Z,19.50
2018-01-21T05:22:23.035Z,19.73
2018-01-21T05:24:52.314Z,19.10
2018-01-21T05:27:20.659Z,19.17
2018-01-21T05:29:49.003Z,17.37
2018-01-21T05:32:17.335Z,17.60
2018-01-21T05:34:45.670Z,19.13
2018-01-21T05:37:14.009Z,18.50
2018-01-21T05:39:42.427Z,20.47
2018-01-21T05:42:10.750Z,20.37
2018-01-21T05:44:39.216Z,18.73
2018-01-21T05:47:07.558Z,20.13
2018-01-21T05:49:35.890Z,19.57
2018-01-21T05:52:04.241Z,20.10
2018-01-21T05:54:32.574Z,19.07
2018-01-21T05:57:01.684Z,19.33
2018-01-21T05:59:30.015Z,18.90
2018-01-21T06:01:58.371Z,19.60
2018-01-21T06:04:26.697Z,18.70
2018-01-21T06:06:55.827Z,20.57
2018-01-21T06:09:24.208Z,18.90
2018-01-21T06:11:52.682Z,20.40
2018-01-21T06:14:21.063Z,20.77
2018-01-21T06:16:49.426Z,19.80
2018-01-21T06:19:18.842Z,19.27
2018-01-21T06:21:47.183Z,18.77
2018-01-21T06:24:15.621Z,19.43
2018-01-21T06:26:44.070Z,18.57
2018-01-21T06:29:13.236Z,20.53
2018-01-21T06:31:41.658Z,20.23
2018-01-21T06:34:09.999Z,18.13
2018-01-21T06:36:38.445Z,22.33
2018-01-21T06:39:06.762Z,20.30
2018-01-21T06:41:35.186Z,22.07
2018-01-21T06:44:03.528Z,22.23
2018-01-21T06:46:32.654Z,30.33
2018-01-21T06:49:00.994Z,23.50
2018-01-21T06:51:29.338Z,24.07
2018-01-21T06:53:57.678Z,25.70
2018-01-21T06:56:26.780Z,26.70
2018-01-21T06:58:55.167Z,29.20
2018-01-21T07:01:23.551Z,29.93
2018-01-21T07:03:51.939Z,30.13
2018-01-21T07:06:20.289Z,34.37
2018-01-21T07:08:49.387Z,35.80
2018-01-21T07:11:17.794Z,35.50
2018-01-21T07:13:46.159Z,36.23
2018-01-21T07:16:14.505Z,38.90
2018-01-21T07:18:43.644Z,41.57
2018-01-21T07:21:12.026Z,39.73
2018-01-21T07:23:40.374Z,42.30
2018-01-21T07:26:09.506Z,45.23
2018-01-21T07:28:37.875Z,43.53
2018-01-21T07:31:06.246Z,40.87
2018-01-21T07:33:34.586Z,40.57
2018-01-21T07:36:03.024Z,43.80
2018-01-21T07:38:31.403Z,40.33
2018-01-21T07:40:59.874Z,43.97
2018-01-21T07:43:28.235Z,44.47
2018-01-21T07:45:56.578Z,42.03
2018-01-21T07:48:25.010Z,40.33
2018-01-21T07:50:53.374Z,42.50
2018-01-21T07:53:22.680Z,38.70
2018-01-21T07:55:51.024Z,40.30
2018-01-21T07:58:19.452Z,42.20
2018-01-21T08:00:47.791Z,40.20
2018-01-21T08:03:16.935Z,38.80
2018-01-21T08:05:45.317Z,40.20
2018-01-21T08:08:13.658Z,39.57
2018-01-21T08:10:42.008Z,38.53
2018-01-21T08:13:10.704Z,37.33
2018-01-21T08:15:39.066Z,36.43
2018-01-21T08:18:07.520Z,37.77
2018-01-21T08:20:35.849Z,35.30
2018-01-21T08:23:04.284Z,36.43
2018-01-21T08:25:32.813Z,33.57
2018-01-21T08:28:01.207Z,35.23
2018-01-21T08:30:30.302Z,44.27
2018-01-21T08:32:58.807Z,41.30
2018-01-21T08:35:32.862Z,38.50
2018-01-21T08:38:06.936Z,38.37
2018-01-21T08:40:40.875Z,33.37
2018-01-21T08:43:09.254Z,34.50
2018-01-21T08:45:37.585Z,34.57
2018-01-21T08:48:05.915Z,34.77
2018-01-21T08:50:34.269Z,32.23
2018-01-21T08:53:02.630Z,31.77
2018-01-21T08:55:30.996Z,31.47
2018-01-21T08:57:59.331Z,29.83
2018-01-21T09:00:27.685Z,26.93
2018-01-21T09:02:56.092Z,26.77
2018-01-21T09:05:24.432Z,26.80
2018-01-21T09:07:52.782Z,28.30
2018-01-21T09:10:21.883Z,26.27
2018-01-21T09:12:50.240Z,28.43
2018-01-21T09:15:18.575Z,26.87
2018-01-21T09:17:46.917Z,24.80
2018-01-21T09:20:16.023Z,25.47
2018-01-21T09:22:44.366Z,24.57
2018-01-21T09:25:12.796Z,23.73
2018-01-21T09:27:41.122Z,26.20
2018-01-21T09:30:09.496Z,23.93
2018-01-21T09:32:37.848Z,24.33
2018-01-21T09:35:06.172Z,25.20
2018-01-21T09:37:35.572Z,26.67
2018-01-21T09:40:03.916Z,26.17
2018-01-21T09:42:32.272Z,26.20
2018-01-21T09:45:00.657Z,27.60
2018-01-21T09:47:29.035Z,26.87
2018-01-21T09:49:57.396Z,25.57
2018-01-21T09:52:25.806Z,23.60
2018-01-21T09:54:54.232Z,25.37
2018-01-21T09:57:23.327Z,24.60
2018-01-21T09:59:52.449Z,25.33
2018-01-21T10:02:20.841Z,27.23
2018-01-21T10:04:49.324Z,27.50
2018-01-21T10:07:17.651Z,25.13
2018-01-21T10:09:45.994Z,26.10
2018-01-21T10:12:14.444Z,26.53
2018-01-21T10:14:42.771Z,25.27
2018-01-21T10:17:11.120Z,25.63
2018-01-21T10:19:39.543Z,23.27
2018-01-21T10:22:07.944Z,25.97
2018-01-21T10:24:37.046Z,24.27
2018-01-21T10:27:06.172Z,25.80
2018-01-21T10:29:34.582Z,22.90
2018-01-21T10:32:02.941Z,22.33
2018-01-21T10:34:31.277Z,21.33
2018-01-21T10:37:00.396Z,21.07
2018-01-21T10:39:28.786Z,23.13
2018-01-21T10:41:57.132Z,22.40
2018-01-21T10:44:26.442Z,22.33
2018-01-21T10:46:54.874Z,23.00
2018-01-21T10:49:23.237Z,22.67
2018-01-21T10:51:51.636Z,21.90
2018-01-21T10:54:19.966Z,22.73
2018-01-21T10:56:48.368Z,21.70
2018-01-21T10:59:16.703Z,24.27
2018-01-21T11:01:45.038Z,22.33
2018-01-21T11:04:13.423Z,21.87
2018-01-21T11:06:41.800Z,20.73
2018-01-21T11:09:10.323Z,20.37
2018-01-21T11:11:38.630Z,21.33
2018-01-21T11:14:07.004Z,19.10
2018-01-21T11:16:35.335Z,17.63
2018-01-21T11:19:03.677Z,18.57
2018-01-21T11:21:32.070Z,18.70
2018-01-21T11:24:00.416Z,17.27
2018-01-21T11:26:28.771Z,17.87
2018-01-21T11:28:57.880Z,16.53
2018-01-21T11:31:26.297Z,17.00
2018-01-21T11:33:54.665Z,18.27
2018-01-21T11:36:23.066Z,17.33
2018-01-21T11:38:52.139Z,17.60
2018-01-21T11:41:20.640Z,16.83
2018-01-21T11:43:48.975Z,18.40
2018-01-21T11:46:17.316Z,18.27
2018-01-21T11:48:45.771Z,17.10
2018-01-21T11:51:14.153Z,16.87
2018-01-21T11:53:42.488Z,18.10
2018-01-21T11:56:11.603Z,17.83
2018-01-21T11:58:40.612Z,17.17
2018-01-21T12:01:08.971Z,17.33
2018-01-21T12:03:37.317Z,17.07
2018-01-21T12:06:05.748Z,16.93
2018-01-21T12:08:34.115Z,16.97
2018-01-21T12:11:02.450Z,17.20
2018-01-21T12:13:30.799Z,15.97
2018-01-21T12:15:59.141Z,15.07
2018-01-21T12:18:27.543Z,13.07
2018-01-21T12:20:55.954Z,13.70
2018-01-21T12:23:24.378Z,14.00
2018-01-21T12:25:53.480Z,14.53
2018-01-21T12:28:21.812Z,18.60
2018-01-21T12:30:50.247Z,11.70
2018-01-21T12:33:18.583Z,12.13
2018-01-21T12:35:46.922Z,12.97
2018-01-21T12:38:15.255Z,12.80
2018-01-21T12:40:43.626Z,11.87
2018-01-21T12:43:12.039Z,12.23
2018-01-21T12:45:40.366Z,11.90
2018-01-21T12:48:08.921Z,11.03
2018-01-21T12:50:37.292Z,11.03
2018-01-21T12:53:05.631Z,10.20
2018-01-21T12:55:34.745Z,10.50
2018-01-21T12:58:03.134Z,10.50
2018-01-21T13:00:31.495Z,9.43
2018-01-21T13:03:00.583Z,10.50
2018-01-21T13:05:28.931Z,9.67
2018-01-21T13:07:57.250Z,9.10
2018-01-21T13:10:26.350Z,9.33
2018-01-21T13:12:54.695Z,10.10
2018-01-21T13:15:23.028Z,9.97
2018-01-21T13:17:51.412Z,10.07
2018-01-21T13:20:19.999Z,9.47
2018-01-21T13:22:48.343Z,10.43
2018-01-21T13:25:17.526Z,9.53
2018-01-21T13:27:45.853Z,9.93
2018-01-21T13:30:14.193Z,8.93
2018-01-21T13:32:43.341Z,9.50
2018-01-21T13:35:11.651Z,9.67
2018-01-21T13:37:39.980Z,10.20
2018-01-21T13:40:08.368Z,10.27
2018-01-21T13:42:36.713Z,10.83
2018-01-21T13:45:05.842Z,9.53
2018-01-21T13:47:34.166Z,9.23
2018-01-21T13:50:02.505Z,10.03
2018-01-21T13:52:30.879Z,8.63
2018-01-21T13:54:59.219Z,8.17
2018-01-21T13:57:28.333Z,9.63
2018-01-21T13:59:56.703Z,10.63
2018-01-21T14:02:25.059Z,9.57
2018-01-21T14:04:53.390Z,10.53
2018-01-21T14:07:21.763Z,8.63
2018-01-21T14:09:50.091Z,9.67
2018-01-21T14:12:18.433Z,8.70
2018-01-21T14:14:46.773Z,9.47
2018-01-21T14:17:15.175Z,8.97
2018-01-21T14:19:43.758Z,9.87
2018-01-21T14:22:12.092Z,9.93
2018-01-21T14:24:40.562Z,9.53
2018-01-21T14:27:08.906Z,8.73
2018-01-21T14:29:37.296Z,8.87
2018-01-21T14:32:05.661Z,19.97
2018-01-21T14:34:33.991Z,9.30
2018-01-21T14:37:02.412Z,7.47
2018-01-21T14:39:30.790Z,6.67
2018-01-21T14:41:59.130Z,5.03
2018-01-21T14:44:29.177Z,5.73
2018-01-21T14:46:57.518Z,5.40
2018-01-21T14:49:25.947Z,6.10
2018-01-21T14:51:54.288Z,5.90
2018-01-21T14:54:23.724Z,5.87
2018-01-21T14:56:52.061Z,6.20
2018-01-21T14:59:20.401Z,8.80
2018-01-21T15:01:48.817Z,9.60
2018-01-21T15:04:17.275Z,7.77
2018-01-21T15:06:45.740Z,18.23
2018-01-21T15:09:14.057Z,16.00
2018-01-21T15:11:43.299Z,12.63
2018-01-21T15:14:11.709Z,9.90
2018-01-21T15:16:40.049Z,9.43
2018-01-21T15:19:08.436Z,8.27
2018-01-21T15:21:36.765Z,8.40
2018-01-21T15:24:05.109Z,9.07
2018-01-21T15:26:33.452Z,8.97
2018-01-21T15:29:02.569Z,8.40
2018-01-21T15:31:30.899Z,9.77
2018-01-21T15:33:59.243Z,9.47
2018-01-21T15:36:27.600Z,8.67
2018-01-21T15:38:56.008Z,8.93
2018-01-21T15:41:24.361Z,8.33
2018-01-21T15:43:52.685Z,7.73
2018-01-21T15:46:21.251Z,7.93
2018-01-21T15:48:49.729Z,8.50
2018-01-21T15:51:18.108Z,7.90
2018-01-21T15:53:46.451Z,8.17
2018-01-21T15:56:15.462Z,7.87
2018-01-21T15:58:43.855Z,6.93
2018-01-21T16:01:12.176Z,6.70
2018-01-21T16:03:40.523Z,8.53
2018-01-21T16:06:08.853Z,8.33
2018-01-21T16:08:37.967Z,8.70
2018-01-21T16:11:06.301Z,7.57
2018-01-21T16:13:34.657Z,8.27
2018-01-21T16:16:03.169Z,10.13
2018-01-21T16:18:31.606Z,10.73
2018-01-21T16:20:59.984Z,9.60
2018-01-21T16:23:28.315Z,8.77
2018-01-21T16:25:57.405Z,8.37
2018-01-21T16:28:26.552Z,8.50
2018-01-21T16:30:54.920Z,10.03
2018-01-21T16:33:23.283Z,10.60
2018-01-21T16:35:51.632Z,9.63
2018-01-21T16:38:32.052Z,11.17
2018-01-21T16:41:00.366Z,10.53
2018-01-21T16:43:28.738Z,9.97
2018-01-21T16:45:57.068Z,9.27
2018-01-21T16:48:25.410Z,9.37
2018-01-21T16:50:53.832Z,9.13
2018-01-21T16:53:22.246Z,9.20
2018-01-21T16:55:50.660Z,9.30
2018-01-21T16:58:19.089Z,8.67
2018-01-21T17:00:47.459Z,8.77
2018-01-21T17:03:15.793Z,8.63
2018-01-21T17:05:44.125Z,8.73
2018-01-21T17:08:12.488Z,8.87
2018-01-21T17:10:40.824Z,8.67
2018-01-21T17:13:09.362Z,15.07
2018-01-21T17:15:37.728Z,11.20
2018-01-21T17:18:06.089Z,8.73
2018-01-21T17:20:34.428Z,8.87
2018-01-21T17:23:02.747Z,8.93
2018-01-21T17:25:31.090Z,9.47
2018-01-21T17:27:59.440Z,12.00
2018-01-21T17:30:27.795Z,15.80
2018-01-21T17:32:56.180Z,17.97
2018-01-21T17:35:24.544Z,13.60
2018-01-21T17:37:53.002Z,10.70
2018-01-21T17:40:21.333Z,10.80
2018-01-21T17:42:49.688Z,11.13
2018-01-21T17:45:18.080Z,11.53
2018-01-21T17:47:46.491Z,11.20
2018-01-21T17:50:14.813Z,10.03
2018-01-21T17:52:43.936Z,10.57
2018-01-21T17:55:12.323Z,11.93
2018-01-21T17:57:40.674Z,9.80
2018-01-21T18:00:09.046Z,9.37
2018-01-21T18:02:37.363Z,9.57
2018-01-21T18:05:05.716Z,10.47
2018-01-21T18:07:34.103Z,9.67
2018-01-21T18:10:02.484Z,11.13
2018-01-21T18:12:30.855Z,10.93
2018-01-21T18:14:59.277Z,10.87
2018-01-21T18:17:27.637Z,10.10
2018-01-21T18:19:56.000Z,10.97
2018-01-21T18:22:24.412Z,10.97
2018-01-21T18:24:52.743Z,10.83
2018-01-21T18:27:21.140Z,11.90
2018-01-21T18:29:49.484Z,10.67
2018-01-21T18:32:18.587Z,10.77
2018-01-21T18:34:46.949Z,13.07
2018-01-21T18:37:15.304Z,15.57
2018-01-21T18:39:43.979Z,11.63
2018-01-21T18:42:12.292Z,10.57
2018-01-21T18:44:40.633Z,9.53
2018-01-21T18:47:08.996Z,11.23
2018-01-21T18:49:37.351Z,11.43
2018-01-21T18:52:06.455Z,11.47
2018-01-21T18:54:34.783Z,12.23
2018-01-21T18:57:04.061Z,12.27
2018-01-21T18:59:32.399Z,12.60
2018-01-21T19:02:01.496Z,12.47
2018-01-21T19:04:30.623Z,12.40
2018-01-21T19:06:58.951Z,12.67
2018-01-21T19:09:27.391Z,11.97
2018-01-21T19:11:55.771Z,13.77
2018-01-21T19:14:24.118Z,13.63
2018-01-21T19:16:52.636Z,14.50
2018-01-21T19:19:20.960Z,14.17
2018-01-21T19:21:49.313Z,12.97
2018-01-21T19:24:17.672Z,12.37
2018-01-21T19:26:46.015Z,12.67
2018-01-21T19:29:14.369Z,11.70
2018-01-21T19:31:42.719Z,13.10
2018-01-21T19:34:11.113Z,14.07
2018-01-21T19:36:39.509Z,12.53
2018-01-21T19:39:09.556Z,13.30
2018-01-21T19:41:37.916Z,12.87
2018-01-21T19:44:17.836Z,16.83
2018-01-21T19:46:46.187Z,13.67
2018-01-21T19:49:14.520Z,13.10
2018-01-21T19:51:43.645Z,13.30
2018-01-21T19:54:12.005Z,12.47
2018-01-21T19:56:40.340Z,14.03
2018-01-21T19:59:08.676Z,13.47
2018-01-21T20:01:37.023Z,12.43
2018-01-21T20:04:06.118Z,12.97
2018-01-21T20:06:35.237Z,12.30
2018-01-21T20:09:03.592Z,12.43
2018-01-21T20:11:32.843Z,13.43
2018-01-21T20:14:01.179Z,11.83
2018-01-21T20:16:30.291Z,13.07
2018-01-21T20:18:59.484Z,12.70
2018-01-21T20:21:28.487Z,12.90
2018-01-21T20:23:56.848Z,13.80
2018-01-21T20:26:25.986Z,13.37
2018-01-21T20:28:54.319Z,13.53
2018-01-21T20:31:23.420Z,12.77
2018-01-21T20:33:52.539Z,13.17
2018-01-21T20:36:20.878Z,11.87
2018-01-21T20:38:49.234Z,13.43
2018-01-21T20:41:17.671Z,12.10
2018-01-21T20:43:46.671Z,12.97
2018-01-21T20:46:15.023Z,13.33
2018-01-21T20:48:44.249Z,11.70
2018-01-21T20:51:18.323Z,13.60
2018-01-21T20:56:45.480Z,17.30
2018-01-21T20:59:13.884Z,13.50
2018-01-21T21:01:43.008Z,12.30
2018-01-21T21:04:11.478Z,12.30
2018-01-21T21:06:39.849Z,12.60
2018-01-21T21:09:08.999Z,12.50
2018-01-21T21:11:37.351Z,12.90
2018-01-21T21:14:05.707Z,13.00
2018-01-21T21:16:34.055Z,13.00
2018-01-21T21:19:02.495Z,12.80
2018-01-21T21:21:30.886Z,12.43
2018-01-21T21:23:59.933Z,12.47
2018-01-21T21:26:28.511Z,13.07
2018-01-21T21:28:57.154Z,12.13
2018-01-21T21:31:25.508Z,13.43
2018-01-21T21:33:53.834Z,14.87
2018-01-21T21:36:22.306Z,14.00
2018-01-21T21:38:50.668Z,12.13
2018-01-21T21:41:19.621Z,12.27
2018-01-21T21:43:47.961Z,14.10
2018-01-21T21:46:16.420Z,13.03
2018-01-21T21:48:44.753Z,13.90
2018-01-21T21:51:13.859Z,13.67
2018-01-21T21:53:42.383Z,13.60
2018-01-21T21:56:10.836Z,13.03
2018-01-21T21:58:39.159Z,13.67
2018-01-21T22:01:08.320Z,13.43
2018-01-21T22:03:36.672Z,16.70
2018-01-21T22:06:05.014Z,19.70
2018-01-21T22:08:33.470Z,14.87
2018-01-21T22:11:01.889Z,13.33
2018-01-21T22:13:30.306Z,12.47
2018-01-21T22:15:58.647Z,13.23
2018-01-21T22:18:27.100Z,13.87
2018-01-21T22:20:55.414Z,13.23
2018-01-21T22:23:23.840Z,13.57
2018-01-21T22:25:52.224Z,13.63
2018-01-21T22:28:20.561Z,14.00
2018-01-21T22:30:49.707Z,13.63
2018-01-21T22:33:18.041Z,13.10
2018-01-21T22:35:47.264Z,13.90
2018-01-21T22:38:15.688Z,13.43
2018-01-21T22:40:44.029Z,12.60
2018-01-21T22:43:12.379Z,14.23
2018-01-21T22:45:41.480Z,13.63
2018-01-21T22:48:09.848Z,14.27
2018-01-21T22:50:38.721Z,13.67
2018-01-21T22:53:07.051Z,12.53
2018-01-21T22:55:35.437Z,13.87
2018-01-21T22:58:03.760Z,13.77
2018-01-21T23:00:32.179Z,12.60
2018-01-21T23:03:00.608Z,13.33
2018-01-21T23:05:29.047Z,14.13
2018-01-21T23:07:57.388Z,12.70
2018-01-21T23:10:26.634Z,13.20
2018-01-21T23:12:54.961Z,12.90
2018-01-21T23:15:23.375Z,12.23
2018-01-21T23:17:51.723Z,13.03
2018-01-21T23:20:32.723Z,12.20
2018-01-21T23:23:01.174Z,12.03
2018-01-21T23:25:30.272Z,12.40
2018-01-21T23:27:59.386Z,12.60
2018-01-21T23:30:27.728Z,11.87
2018-01-21T23:32:56.184Z,11.37
2018-01-21T23:35:24.541Z,11.47
2018-01-21T23:37:52.885Z,13.23
2018-01-21T23:40:21.534Z,12.80
2018-01-21T23:42:49.869Z,11.23
2018-01-21T23:45:18.963Z,11.70
2018-01-21T23:47:47.314Z,11.47
2018-01-21T23:50:15.753Z,12.67
2018-01-21T23:52:44.098Z,11.03
2018-01-21T23:55:13.196Z,12.17
2018-01-21T23:57:41.564Z,10.87
